createdAt,value
2022-08-05T00:00:46.441Z,6.70
2022-08-05T00:03:16.290Z,6.78
2022-08-05T00:06:06.610Z,10.07
2022-08-05T00:08:34.476Z,8.93
2022-08-05T00:11:02.835Z,9.52
2022-08-05T00:13:38.922Z,10.82
2022-08-05T00:16:08.453Z,10.50
2022-08-05T00:18:35.449Z,9.05
2022-08-05T00:21:01.806Z,8.55
2022-08-05T00:23:31.087Z,7.82
2022-08-05T00:26:13.546Z,4.65
2022-08-05T00:28:43.492Z,11.05
2022-08-05T00:31:12.837Z,6.32
2022-08-05T00:34:54.740Z,7.03
2022-08-05T00:37:10.632Z,11.05
2022-08-05T00:39:13.916Z,14.13
2022-08-05T00:41:51.546Z,8.68
2022-08-05T00:44:21.873Z,11.95
2022-08-05T00:46:54.214Z,10.05
2022-08-05T00:49:28.095Z,10.38
2022-08-05T00:51:59.291Z,7.32
2022-08-05T00:54:28.125Z,14.27
2022-08-05T00:56:56.731Z,11.23
2022-08-05T00:59:23.051Z,16.20
2022-08-05T01:01:49.470Z,16.38
2022-08-05T01:04:19.916Z,14.40
2022-08-05T01:06:52.966Z,13.40
2022-08-05T01:09:20.256Z,19.30
2022-08-05T01:11:50.802Z,22.33
2022-08-05T01:14:28.313Z,26.00
2022-08-05T01:17:17.723Z,24.42
2022-08-05T01:20:01.182Z,22.00
2022-08-05T01:22:57.255Z,26.30
2022-08-05T01:25:40.425Z,27.63
2022-08-05T01:28:13.589Z,26.10
2022-08-05T01:30:53.511Z,21.65
2022-08-05T01:33:25.232Z,25.55
2022-08-05T01:35:55.578Z,23.58
2022-08-05T01:38:29.292Z,22.50
2022-08-05T01:40:59.520Z,18.73
2022-08-05T01:43:27.772Z,21.73
2022-08-05T01:45:57.215Z,20.75
2022-08-05T01:48:27.042Z,20.05
2022-08-05T01:50:55.614Z,20.40
2022-08-05T01:53:57.200Z,25.50
2022-08-05T01:56:13.731Z,21.92
2022-08-05T01:59:03.239Z,18.20
2022-08-05T02:01:34.201Z,26.38
2022-08-05T02:04:09.129Z,18.60
2022-08-05T02:06:38.765Z,18.58
2022-08-05T02:09:06.440Z,22.67
2022-08-05T02:11:48.182Z,22.52
2022-08-05T02:14:28.875Z,26.23
2022-08-05T02:17:04.986Z,24.75
2022-08-05T02:19:35.057Z,18.13
2022-08-05T02:22:09.080Z,19.10
2022-08-05T02:24:51.514Z,15.95
2022-08-05T02:27:30.198Z,18.42
2022-08-05T02:30:10.298Z,21.55
2022-08-05T02:32:38.000Z,20.00
2022-08-05T02:35:14.511Z,19.90
2022-08-05T02:37:47.772Z,28.27
2022-08-05T02:40:21.288Z,31.02
2022-08-05T02:42:52.675Z,31.63
2022-08-05T02:45:24.255Z,40.83
2022-08-05T02:48:07.072Z,40.15
2022-08-05T02:50:43.658Z,45.03
2022-08-05T02:53:18.928Z,44.65
2022-08-05T02:55:54.327Z,48.28
2022-08-05T02:58:26.887Z,47.30
2022-08-05T03:00:56.512Z,46.38
2022-08-05T03:03:23.533Z,49.80
2022-08-05T03:06:55.890Z,52.10
2022-08-05T03:08:42.812Z,44.78
2022-08-05T03:11:57.390Z,48.13
2022-08-05T03:14:07.891Z,46.25
2022-08-05T03:16:35.808Z,45.65
2022-08-05T03:19:04.201Z,51.92
2022-08-05T03:21:44.212Z,46.60
2022-08-05T03:24:15.539Z,45.85
2022-08-05T03:26:41.952Z,42.90
2022-08-05T03:29:12.449Z,47.65
2022-08-05T03:31:56.680Z,46.72
2022-08-05T03:34:24.358Z,41.28
2022-08-05T03:36:50.978Z,44.85
2022-08-05T03:39:26.578Z,48.08
2022-08-05T03:41:56.343Z,45.25
2022-08-05T03:44:23.350Z,46.92
2022-08-05T03:46:49.793Z,43.50
2022-08-05T03:49:16.255Z,45.85
2022-08-05T03:52:50.073Z,46.22
2022-08-05T03:56:01.935Z,51.55
2022-08-05T03:57:51.903Z,51.70
2022-08-05T04:00:19.871Z,56.33
2022-08-05T04:02:58.870Z,57.60
2022-08-05T04:05:33.201Z,59.45
2022-08-05T04:08:03.467Z,55.92
2022-08-05T04:10:37.922Z,55.17
2022-08-05T04:13:06.415Z,60.38
2022-08-05T04:15:36.019Z,62.67
2022-08-05T04:18:06.735Z,60.80
2022-08-05T04:20:34.008Z,65.03
2022-08-05T04:23:00.383Z,62.85
2022-08-05T04:25:56.619Z,66.57
2022-08-05T04:28:13.980Z,67.03
2022-08-05T04:30:41.359Z,65.82
2022-08-05T04:33:09.396Z,53.78
2022-08-05T04:36:16.177Z,55.00
2022-08-05T04:38:22.260Z,53.55
2022-08-05T04:41:06.508Z,57.60
2022-08-05T04:43:34.138Z,59.10
2022-08-05T04:46:00.659Z,46.75
2022-08-05T04:48:28.415Z,54.15
2022-08-05T04:51:02.905Z,53.30
2022-08-05T04:53:36.502Z,55.40
2022-08-05T04:56:33.959Z,54.17
2022-08-05T04:58:52.615Z,46.40
2022-08-05T05:02:05.740Z,47.15
2022-08-05T05:04:05.270Z,45.58
2022-08-05T05:06:39.034Z,43.15
2022-08-05T05:09:07.507Z,49.38
2022-08-05T05:11:42.173Z,48.13
2022-08-05T05:14:27.877Z,55.55
2022-08-05T05:16:58.534Z,54.95
2022-08-05T05:19:26.613Z,54.67
2022-08-05T05:21:55.563Z,46.13
2022-08-05T05:24:22.198Z,42.45
2022-08-05T05:27:08.514Z,35.45
2022-08-05T05:30:03.400Z,38.50
2022-08-05T05:32:21.183Z,40.80
2022-08-05T05:34:47.525Z,32.78
2022-08-05T05:37:13.940Z,33.10
2022-08-05T05:39:42.539Z,33.00
2022-08-05T05:42:11.625Z,28.05
2022-08-05T05:44:44.416Z,28.55
2022-08-05T05:47:21.244Z,29.20
2022-08-05T05:49:52.615Z,27.88
2022-08-05T05:55:07.388Z,26.50
2022-08-05T05:57:42.894Z,21.15
2022-08-05T06:00:20.544Z,26.38
2022-08-05T06:02:53.967Z,27.95
2022-08-05T06:05:20.586Z,24.67
2022-08-05T06:07:57.846Z,23.63
2022-08-05T06:10:29.403Z,28.80
2022-08-05T06:13:00.899Z,27.92
2022-08-05T06:16:30.697Z,26.17
2022-08-05T06:18:13.567Z,28.55
2022-08-05T06:20:41.757Z,27.38
2022-08-05T06:23:14.145Z,27.90
2022-08-05T06:26:12.553Z,30.35
2022-08-05T06:28:28.646Z,25.75
2022-08-05T06:30:55.532Z,27.05
2022-08-05T06:33:44.413Z,25.58
2022-08-05T06:36:10.158Z,25.35
2022-08-05T06:38:37.189Z,23.75
2022-08-05T06:41:04.762Z,25.30
2022-08-05T06:43:57.807Z,25.27
2022-08-05T06:46:17.730Z,23.17
2022-08-05T06:48:56.050Z,28.77
2022-08-05T06:51:30.183Z,22.00
2022-08-05T06:54:02.518Z,20.92
2022-08-05T06:56:34.541Z,23.33
2022-08-05T06:59:08.633Z,18.80
2022-08-05T07:01:36.243Z,22.55
2022-08-05T07:04:03.378Z,20.27
2022-08-05T07:06:30.117Z,18.95
2022-08-05T07:08:59.115Z,19.38
2022-08-05T07:11:25.746Z,21.00
2022-08-05T07:13:59.743Z,25.40
2022-08-05T07:17:56.257Z,21.15
2022-08-05T07:19:16.052Z,19.02
2022-08-05T07:22:01.479Z,25.90
2022-08-05T07:24:29.996Z,25.80
2022-08-05T07:26:56.751Z,32.15
2022-08-05T07:29:25.371Z,26.20
2022-08-05T07:32:09.939Z,27.80
2022-08-05T07:34:40.447Z,23.55
2022-08-05T07:37:09.162Z,23.77
2022-08-05T07:40:04.578Z,23.35
2022-08-05T07:42:33.427Z,31.25
2022-08-05T07:45:00.831Z,28.83
2022-08-05T07:47:27.300Z,24.25
2022-08-05T07:50:09.268Z,28.50
2022-08-05T07:52:43.059Z,29.95
2022-08-05T07:55:43.994Z,22.88
2022-08-05T07:58:02.985Z,23.33
2022-08-05T08:00:30.415Z,22.63
2022-08-05T08:03:15.375Z,21.27
2022-08-05T08:05:49.416Z,19.60
2022-08-05T08:08:16.619Z,17.27
2022-08-05T08:10:48.987Z,18.98
2022-08-05T08:13:21.929Z,17.52
2022-08-05T08:16:35.948Z,20.50
2022-08-05T08:18:42.387Z,15.60
2022-08-05T08:21:17.745Z,17.83
2022-08-05T08:24:02.807Z,19.08
2022-08-05T08:26:30.620Z,21.42
2022-08-05T08:29:02.090Z,18.67
2022-08-05T08:31:44.791Z,19.80
2022-08-05T08:34:11.127Z,20.42
2022-08-05T08:36:52.435Z,18.83
2022-08-05T08:39:22.201Z,28.10
2022-08-05T08:41:51.824Z,22.92
2022-08-05T08:45:23.125Z,24.23
2022-08-05T08:47:47.453Z,22.17
2022-08-05T08:50:30.478Z,23.00
2022-08-05T08:53:01.400Z,21.90
2022-08-05T08:56:01.877Z,24.67
2022-08-05T08:58:15.680Z,24.20
2022-08-05T09:00:42.081Z,20.98
2022-08-05T09:03:09.928Z,22.85
2022-08-05T09:05:38.368Z,23.02
2022-08-05T09:08:26.622Z,27.40
2022-08-05T09:10:57.288Z,26.17
2022-08-05T09:13:24.499Z,22.75
2022-08-05T09:15:58.027Z,22.35
2022-08-05T09:18:25.545Z,18.70
2022-08-05T09:20:51.870Z,16.63
2022-08-05T09:23:21.935Z,16.30
2022-08-05T09:26:01.029Z,16.75
2022-08-05T09:28:33.559Z,12.57
2022-08-05T09:31:44.192Z,14.75
2022-08-05T09:33:57.565Z,14.90
2022-08-05T09:36:27.612Z,18.52
2022-08-05T09:39:18.262Z,18.00
2022-08-05T09:42:05.562Z,17.02
2022-08-05T09:44:40.969Z,23.50
2022-08-05T09:47:10.502Z,24.35
2022-08-05T09:50:01.503Z,24.25
2022-08-05T09:52:35.375Z,22.65
2022-08-05T09:55:58.453Z,25.10
2022-08-05T09:57:58.415Z,23.63
2022-08-05T10:00:25.322Z,28.38
2022-08-05T10:02:53.516Z,25.45
2022-08-05T10:05:23.692Z,26.83
2022-08-05T10:08:34.678Z,32.45
2022-08-05T10:10:45.556Z,33.42
2022-08-05T10:13:47.262Z,30.08
2022-08-05T10:16:41.758Z,30.00
2022-08-05T10:19:19.193Z,25.92
2022-08-05T10:21:50.404Z,25.80
2022-08-05T10:24:19.339Z,29.55
2022-08-05T10:26:52.707Z,22.95
2022-08-05T10:29:23.882Z,28.95
2022-08-05T10:33:01.409Z,26.67
2022-08-05T10:34:57.098Z,30.42
2022-08-05T10:37:40.514Z,25.75
2022-08-05T10:40:31.507Z,21.88
2022-08-05T10:43:04.695Z,23.00
2022-08-05T10:45:40.044Z,21.75
2022-08-05T10:48:57.163Z,20.50
2022-08-05T10:51:29.274Z,18.52
2022-08-05T10:54:23.153Z,14.57
2022-08-05T10:56:52.796Z,19.73
2022-08-05T11:00:03.710Z,13.48
2022-08-05T11:02:34.660Z,16.85
2022-08-05T11:05:06.913Z,14.05
2022-08-05T11:08:02.529Z,12.63
2022-08-05T11:10:27.247Z,16.67
2022-08-05T11:12:55.815Z,11.68
2022-08-05T11:16:00.210Z,13.43
2022-08-05T11:18:32.632Z,10.38
2022-08-05T11:24:04.386Z,15.07
2022-08-05T11:26:32.467Z,12.90
2022-08-05T11:29:06.585Z,15.85
2022-08-05T11:31:56.778Z,11.90
2022-08-05T11:34:39.674Z,13.13
2022-08-05T11:38:29.840Z,10.95
2022-08-05T11:40:00.520Z,12.65
2022-08-05T11:42:32.336Z,13.73
2022-08-05T11:45:05.963Z,15.23
2022-08-05T11:47:50.548Z,14.20
2022-08-05T11:50:21.394Z,12.23
2022-08-05T11:52:49.479Z,11.63
2022-08-05T11:55:16.685Z,8.23
2022-08-05T11:58:09.443Z,7.38
2022-08-05T12:00:38.446Z,11.63
2022-08-05T12:03:28.843Z,11.25
2022-08-05T12:06:06.017Z,6.35
2022-08-05T12:09:08.640Z,6.68
2022-08-05T12:11:46.323Z,6.35
2022-08-05T12:14:13.852Z,10.77
2022-08-05T12:16:45.351Z,8.88
2022-08-05T12:20:17.204Z,7.95
2022-08-05T12:21:59.675Z,8.40
2022-08-05T12:24:27.668Z,7.47
2022-08-05T12:26:54.098Z,11.45
2022-08-05T12:29:26.208Z,6.60
2022-08-05T12:31:55.181Z,9.65
2022-08-05T12:34:25.908Z,10.93
2022-08-05T12:36:53.791Z,6.82
2022-08-05T12:39:20.766Z,7.38
2022-08-05T12:41:47.320Z,9.85
2022-08-05T12:44:32.786Z,9.20
2022-08-05T12:50:03.016Z,7.65
2022-08-05T12:52:32.296Z,5.78
2022-08-05T12:55:26.854Z,8.43
2022-08-05T12:58:49.212Z,6.75
2022-08-05T13:02:05.902Z,8.65
2022-08-05T13:03:32.890Z,7.95
2022-08-05T13:06:01.229Z,5.60
2022-08-05T13:08:32.110Z,8.45
2022-08-05T13:11:02.461Z,6.03
2022-08-05T13:14:06.686Z,6.68
2022-08-05T13:16:17.161Z,7.32
2022-08-05T13:18:55.188Z,6.72
2022-08-05T13:21:28.219Z,3.88
2022-08-05T13:24:04.982Z,6.22
2022-08-05T13:26:31.375Z,3.75
2022-08-05T13:28:58.959Z,4.90
2022-08-05T13:31:33.714Z,5.72
2022-08-05T13:34:21.710Z,5.38
2022-08-05T13:36:51.984Z,6.97
2022-08-05T13:40:14.424Z,5.78
2022-08-05T13:42:04.918Z,4.22
2022-08-05T13:44:32.340Z,3.90
2022-08-05T13:47:02.315Z,3.85
2022-08-05T13:49:35.518Z,6.68
2022-08-05T13:52:14.637Z,3.78
2022-08-05T13:54:41.681Z,4.57
2022-08-05T13:57:09.400Z,3.60
2022-08-05T13:59:37.305Z,2.88
2022-08-05T14:02:26.620Z,4.78
2022-08-05T14:04:55.978Z,3.42
2022-08-05T14:08:00.497Z,3.90
2022-08-05T14:10:28.631Z,4.37
2022-08-05T14:12:57.750Z,3.78
2022-08-05T14:16:07.706Z,3.15
2022-08-05T14:18:17.547Z,4.68
2022-08-05T14:20:54.964Z,5.32
2022-08-05T14:23:25.414Z,3.38
2022-08-05T14:25:58.509Z,2.53
2022-08-05T14:28:27.027Z,4.95
2022-08-05T14:30:54.354Z,3.90
2022-08-05T14:33:22.600Z,3.42
2022-08-05T14:35:51.804Z,3.67
2022-08-05T14:38:32.093Z,4.75
2022-08-05T14:41:00.797Z,5.68
2022-08-05T14:44:01.832Z,5.63
2022-08-05T14:46:13.610Z,5.70
2022-08-05T14:48:40.426Z,4.47
2022-08-05T14:51:06.816Z,5.38
2022-08-05T14:53:34.980Z,5.18
2022-08-05T14:56:11.353Z,4.10
2022-08-05T14:58:38.628Z,4.47
2022-08-05T15:01:16.152Z,2.58
2022-08-05T15:03:43.237Z,2.20
2022-08-05T15:06:15.048Z,3.78
2022-08-05T15:08:59.580Z,4.78
2022-08-05T15:11:51.240Z,3.63
2022-08-05T15:14:33.548Z,7.47
2022-08-05T15:17:04.700Z,3.47
2022-08-05T15:19:31.906Z,3.88
2022-08-05T15:22:00.241Z,5.55
2022-08-05T15:24:27.948Z,4.10
2022-08-05T15:26:55.880Z,1.75
2022-08-05T15:29:23.311Z,4.85
2022-08-05T15:31:52.744Z,5.03
2022-08-05T15:34:33.177Z,4.53
2022-08-05T15:37:06.151Z,4.93
2022-08-05T15:41:00.645Z,3.78
2022-08-05T15:42:54.699Z,3.72
2022-08-05T15:45:06.286Z,3.20
2022-08-05T15:47:32.806Z,5.03
2022-08-05T15:50:03.044Z,3.10
2022-08-05T15:52:53.693Z,1.65
2022-08-05T15:55:16.811Z,4.78
2022-08-05T15:57:44.962Z,3.72
2022-08-05T16:00:12.595Z,3.67
2022-08-05T16:02:43.343Z,3.60
2022-08-05T16:05:11.275Z,4.32
2022-08-05T16:07:37.923Z,3.50
2022-08-05T16:10:12.718Z,1.73
2022-08-05T16:12:40.226Z,3.53
2022-08-05T16:15:06.839Z,1.38
2022-08-05T16:17:36.109Z,3.35
2022-08-05T16:20:07.698Z,2.05
2022-08-05T16:22:38.255Z,4.85
2022-08-05T16:25:09.583Z,1.52
2022-08-05T16:28:00.413Z,2.35
2022-08-05T16:30:25.857Z,2.58
2022-08-05T16:32:54.219Z,2.30
2022-08-05T16:35:27.911Z,1.60
2022-08-05T16:38:02.700Z,1.15
2022-08-05T16:40:51.627Z,2.25
2022-08-05T16:43:23.690Z,4.80
2022-08-05T16:46:04.637Z,1.70
2022-08-05T16:48:37.247Z,1.95
2022-08-05T16:51:03.795Z,4.07
2022-08-05T16:54:05.933Z,2.20
2022-08-05T16:56:22.072Z,4.60
2022-08-05T16:58:49.781Z,3.95
2022-08-05T17:01:16.484Z,1.40
2022-08-05T17:03:45.385Z,2.35
2022-08-05T17:06:11.933Z,1.33
2022-08-05T17:08:52.903Z,2.78
2022-08-05T17:11:25.541Z,0.85
2022-08-05T17:14:05.182Z,3.05
2022-08-05T17:16:36.368Z,3.40
2022-08-05T17:19:07.620Z,2.38
2022-08-05T17:21:37.238Z,2.45
2022-08-05T17:24:19.428Z,2.35
2022-08-05T17:26:55.376Z,2.10
2022-08-05T17:29:33.083Z,2.88
2022-08-05T17:32:06.139Z,3.40
2022-08-05T17:34:34.854Z,3.42
2022-08-05T17:37:01.495Z,3.00
2022-08-05T17:39:33.156Z,3.78
2022-08-05T17:42:17.558Z,3.42
2022-08-05T17:44:50.357Z,3.80
2022-08-05T17:47:21.965Z,4.70
2022-08-05T17:50:00.457Z,3.03
2022-08-05T17:52:32.330Z,3.45
2022-08-05T17:54:59.365Z,3.80
2022-08-05T17:57:25.761Z,2.72
2022-08-05T18:00:03.564Z,2.60
2022-08-05T18:02:32.342Z,3.00
2022-08-05T18:04:58.856Z,4.18
2022-08-05T18:07:32.777Z,2.28
2022-08-05T18:10:10.190Z,4.78
2022-08-05T18:12:37.152Z,3.65
2022-08-05T18:15:04.766Z,5.45
2022-08-05T18:17:59.194Z,1.95
2022-08-05T18:20:18.306Z,2.00
2022-08-05T18:22:54.686Z,4.20
2022-08-05T18:25:23.654Z,1.80
2022-08-05T18:27:52.285Z,2.63
2022-08-05T18:30:19.490Z,3.20
2022-08-05T18:32:53.298Z,4.53
2022-08-05T18:35:28.394Z,5.07
2022-08-05T18:38:12.546Z,4.25
2022-08-05T18:41:53.397Z,4.93
2022-08-05T18:43:31.654Z,3.83
2022-08-05T18:46:05.159Z,3.75
2022-08-05T18:48:33.552Z,3.75
2022-08-05T18:51:01.620Z,4.28
2022-08-05T18:53:50.132Z,7.25
2022-08-05T18:56:16.879Z,2.95
2022-08-05T18:58:48.177Z,5.07
2022-08-05T19:01:17.894Z,1.98
2022-08-05T19:03:53.079Z,4.93
2022-08-05T19:06:22.175Z,2.50
2022-08-05T19:09:01.514Z,4.93
2022-08-05T19:11:28.710Z,3.75
2022-08-05T19:14:52.132Z,4.53
2022-08-05T19:17:00.823Z,8.38
2022-08-05T19:19:27.179Z,1.42
2022-08-05T19:21:56.960Z,4.13
2022-08-05T19:24:34.901Z,6.28
2022-08-05T19:27:04.187Z,2.92
2022-08-05T19:29:36.289Z,1.52
2022-08-05T19:32:08.545Z,3.00
2022-08-05T19:34:38.049Z,2.00
2022-08-05T19:37:05.005Z,3.10
2022-08-05T19:39:32.012Z,1.85
2022-08-05T19:42:13.441Z,3.30
2022-08-05T19:44:44.668Z,2.38
2022-08-05T19:47:12.355Z,4.20
2022-08-05T19:49:42.529Z,2.90
2022-08-05T19:52:31.587Z,1.45
2022-08-05T19:54:57.883Z,1.92
2022-08-05T19:57:47.296Z,2.70
2022-08-05T20:00:13.488Z,2.33
2022-08-05T20:02:39.836Z,5.13
2022-08-05T20:05:09.584Z,2.72
2022-08-05T20:07:48.701Z,2.38
2022-08-05T20:10:16.287Z,2.95
2022-08-05T20:12:45.974Z,3.72
2022-08-05T20:15:14.539Z,3.05
2022-08-05T20:17:40.892Z,2.20
2022-08-05T20:20:11.034Z,1.77
2022-08-05T20:22:37.559Z,1.88
2022-08-05T20:25:08.529Z,6.47
2022-08-05T20:27:41.960Z,2.45
2022-08-05T20:30:09.275Z,4.47
2022-08-05T20:32:36.411Z,2.45
2022-08-05T20:35:11.430Z,3.00
2022-08-05T20:38:05.592Z,3.97
2022-08-05T20:40:24.606Z,2.10
2022-08-05T20:42:53.401Z,3.15
2022-08-05T20:45:56.374Z,3.08
2022-08-05T20:48:12.799Z,7.43
2022-08-05T20:50:46.788Z,3.10
2022-08-05T20:53:15.972Z,3.05
2022-08-05T20:55:56.062Z,3.97
2022-08-05T20:58:29.101Z,1.75
2022-08-05T21:00:56.845Z,2.35
2022-08-05T21:03:23.403Z,2.90
2022-08-05T21:05:54.740Z,2.50
2022-08-05T21:08:35.927Z,1.98
2022-08-05T21:11:12.858Z,5.80
2022-08-05T21:13:59.042Z,4.93
2022-08-05T21:16:30.025Z,2.65
2022-08-05T21:18:59.983Z,3.10
2022-08-05T21:21:39.063Z,4.95
2022-08-05T21:24:06.795Z,3.28
2022-08-05T21:26:33.635Z,4.40
2022-08-05T21:29:03.774Z,2.70
2022-08-05T21:31:41.501Z,2.08
2022-08-05T21:34:08.417Z,3.08
2022-08-05T21:36:37.049Z,7.00
2022-08-05T21:39:03.587Z,7.93
2022-08-05T21:41:33.804Z,2.60
2022-08-05T21:44:01.544Z,2.50
2022-08-05T21:46:29.864Z,2.35
2022-08-05T21:48:56.568Z,3.47
2022-08-05T21:51:25.081Z,4.18
2022-08-05T21:54:09.538Z,5.15
2022-08-05T21:56:35.870Z,3.25
2022-08-05T22:01:54.517Z,2.65
2022-08-05T22:04:21.302Z,2.88
2022-08-05T22:06:52.513Z,6.50
2022-08-05T22:09:21.512Z,2.70
2022-08-05T22:11:48.207Z,3.22
2022-08-05T22:14:33.929Z,3.42
2022-08-05T22:17:06.758Z,3.15
2022-08-05T22:20:01.088Z,5.75
2022-08-05T22:22:27.264Z,3.25
2022-08-05T22:24:55.761Z,4.15
2022-08-05T22:27:22.831Z,1.65
2022-08-05T22:29:49.187Z,3.47
2022-08-05T22:32:20.664Z,2.83
2022-08-05T22:34:49.388Z,5.22
2022-08-05T22:37:15.787Z,2.67
2022-08-05T22:39:42.251Z,3.58
2022-08-05T22:42:15.331Z,3.58
2022-08-05T22:44:42.746Z,2.55
2022-08-05T22:47:29.347Z,2.58
2022-08-05T22:50:20.850Z,2.40
2022-08-05T22:52:48.217Z,1.80
2022-08-05T22:55:19.021Z,4.13
2022-08-05T22:57:46.712Z,4.38
2022-08-05T23:00:17.949Z,2.60
2022-08-05T23:02:47.811Z,3.42
2022-08-05T23:05:15.313Z,2.35
2022-08-05T23:07:48.651Z,4.03
2022-08-05T23:10:19.894Z,3.35
2022-08-05T23:12:51.542Z,6.18
2022-08-05T23:15:21.514Z,3.63
2022-08-05T23:18:00.645Z,3.22
2022-08-05T23:20:29.580Z,2.80
2022-08-05T23:22:56.578Z,3.42
2022-08-05T23:25:52.295Z,3.30
2022-08-05T23:28:11.927Z,2.95
2022-08-05T23:30:40.683Z,3.55
2022-08-05T23:33:22.007Z,3.38
2022-08-05T23:35:52.475Z,3.17
2022-08-05T23:38:22.767Z,4.30
2022-08-05T23:40:49.531Z,2.60
2022-08-05T23:43:24.842Z,5.07
2022-08-05T23:46:02.952Z,3.67
2022-08-05T23:48:29.282Z,3.85
2022-08-05T23:50:55.620Z,3.25
2022-08-05T23:53:22.622Z,6.57
2022-08-05T23:55:49.565Z,4.28
2022-08-05T23:58:31.914Z,2.63
